createdAt,value
2023-05-22T00:00:21.662Z,22.40
2023-05-22T00:02:50.756Z,22.27
2023-05-22T00:05:20.588Z,24.17
2023-05-22T00:07:48.613Z,23.67
2023-05-22T00:10:16.842Z,20.97
2023-05-22T00:12:44.759Z,23.73
2023-05-22T00:15:14.633Z,23.43
2023-05-22T00:17:43.166Z,26.17
2023-05-22T00:20:11.841Z,24.97
2023-05-22T00:22:39.803Z,25.30
2023-05-22T00:25:09.048Z,30.80
2023-05-22T00:27:36.924Z,22.40
2023-05-22T00:30:06.116Z,23.93
2023-05-22T00:32:35.793Z,22.27
2023-05-22T00:35:03.956Z,22.27
2023-05-22T00:37:31.891Z,26.27
2023-05-22T00:39:59.854Z,27.63
2023-05-22T00:45:14.846Z,27.50
2023-05-22T00:47:44.492Z,24.57
2023-05-22T00:50:13.895Z,25.67
2023-05-22T00:52:44.184Z,30.07
2023-05-22T00:55:12.961Z,25.47
2023-05-22T00:57:42.604Z,28.07
2023-05-22T01:00:11.786Z,25.70
2023-05-22T01:02:42.952Z,25.17
2023-05-22T01:05:13.206Z,23.10
2023-05-22T01:07:41.745Z,27.47
2023-05-22T01:10:10.612Z,26.40
2023-05-22T01:12:47.655Z,25.30
2023-05-22T01:15:25.448Z,28.57
2023-05-22T01:18:01.859Z,26.00
2023-05-22T01:20:36.781Z,29.80
2023-05-22T01:23:34.222Z,27.77
2023-05-22T01:26:22.803Z,28.43
2023-05-22T01:29:08.082Z,26.00
2023-05-22T01:31:41.861Z,28.57
2023-05-22T01:34:12.667Z,27.67
2023-05-22T01:36:42.427Z,26.93
2023-05-22T01:39:11.086Z,27.20
2023-05-22T01:41:39.437Z,25.77
2023-05-22T01:44:07.505Z,23.43
2023-05-22T01:46:36.816Z,24.10
2023-05-22T01:49:05.991Z,27.33
2023-05-22T01:51:44.440Z,27.17
2023-05-22T01:54:18.689Z,28.57
2023-05-22T01:56:49.986Z,28.87
2023-05-22T01:59:27.995Z,32.63
2023-05-22T02:01:59.293Z,25.83
2023-05-22T02:04:29.549Z,28.50
2023-05-22T02:07:00.373Z,29.17
2023-05-22T02:09:31.386Z,28.80
2023-05-22T02:12:00.435Z,28.23
2023-05-22T02:14:30.780Z,25.43
2023-05-22T02:17:02.041Z,30.73
2023-05-22T02:19:30.066Z,26.57
2023-05-22T02:21:58.154Z,28.03
2023-05-22T02:24:26.225Z,29.60
2023-05-22T02:26:54.680Z,26.93
2023-05-22T02:29:22.776Z,29.43
2023-05-22T02:31:50.805Z,27.07
2023-05-22T02:34:20.863Z,29.43
2023-05-22T02:36:51.072Z,28.27
2023-05-22T02:39:19.285Z,21.43
2023-05-22T02:41:47.405Z,27.40
2023-05-22T02:44:15.538Z,26.30
2023-05-22T02:46:44.381Z,28.27
2023-05-22T02:49:12.484Z,26.47
2023-05-22T02:51:41.807Z,25.13
2023-05-22T02:54:09.946Z,22.70
2023-05-22T02:56:37.880Z,24.60
2023-05-22T02:59:05.749Z,23.40
2023-05-22T03:01:34.727Z,30.10
2023-05-22T03:04:02.760Z,25.73
2023-05-22T03:06:32.178Z,28.30
2023-05-22T03:09:04.049Z,25.73
2023-05-22T03:11:31.941Z,30.53
2023-05-22T03:13:59.916Z,25.93
2023-05-22T03:16:28.037Z,28.10
2023-05-22T03:19:08.918Z,23.80
2023-05-22T03:21:37.342Z,26.20
2023-05-22T03:24:27.014Z,27.73
2023-05-22T03:26:55.265Z,25.70
2023-05-22T03:29:33.601Z,23.40
2023-05-22T03:32:03.435Z,27.63
2023-05-22T03:34:32.141Z,32.30
2023-05-22T03:37:01.267Z,27.57
2023-05-22T03:39:30.595Z,35.60
2023-05-22T03:42:03.480Z,31.07
2023-05-22T03:44:31.379Z,31.27
2023-05-22T03:46:59.341Z,29.30
2023-05-22T03:49:27.260Z,29.27
2023-05-22T03:51:55.213Z,35.23
2023-05-22T03:54:23.318Z,33.10
2023-05-22T03:56:52.621Z,29.63
2023-05-22T04:02:07.787Z,33.37
2023-05-22T04:04:38.292Z,37.23
2023-05-22T04:07:08.192Z,33.53
2023-05-22T04:09:37.073Z,33.97
2023-05-22T04:12:07.445Z,30.83
2023-05-22T04:14:35.403Z,33.23
2023-05-22T04:17:03.294Z,37.10
2023-05-22T04:19:31.341Z,29.43
2023-05-22T04:21:59.794Z,37.20
2023-05-22T04:24:27.830Z,37.97
2023-05-22T04:26:56.131Z,35.43
2023-05-22T04:29:25.429Z,39.93
2023-05-22T04:31:57.983Z,40.23
2023-05-22T04:34:27.183Z,33.67
2023-05-22T04:36:55.122Z,38.90
2023-05-22T04:39:26.177Z,37.57
2023-05-22T04:44:43.632Z,33.83
2023-05-22T04:47:14.414Z,37.67
2023-05-22T04:49:43.555Z,40.43
2023-05-22T04:52:11.655Z,42.23
2023-05-22T04:54:39.826Z,45.40
2023-05-22T04:57:07.768Z,43.87
2023-05-22T04:59:39.197Z,37.87
2023-05-22T05:02:08.609Z,34.83
2023-05-22T05:04:37.240Z,45.47
2023-05-22T05:07:06.102Z,42.63
2023-05-22T05:09:34.123Z,42.07
2023-05-22T05:12:03.706Z,40.87
2023-05-22T05:14:31.608Z,40.13
2023-05-22T05:16:59.616Z,41.83
2023-05-22T05:19:28.932Z,51.93
2023-05-22T05:21:57.000Z,42.77
2023-05-22T05:24:26.086Z,43.07
2023-05-22T05:26:54.246Z,45.37
2023-05-22T05:29:22.264Z,42.40
2023-05-22T05:31:56.376Z,37.73
2023-05-22T05:34:46.312Z,36.93
2023-05-22T05:37:37.424Z,44.70
2023-05-22T05:40:08.806Z,43.37
2023-05-22T05:42:39.692Z,45.17
2023-05-22T05:45:10.991Z,46.20
2023-05-22T05:47:38.966Z,41.10
2023-05-22T05:50:09.602Z,46.83
2023-05-22T05:52:56.716Z,40.00
2023-05-22T05:55:25.051Z,44.03
2023-05-22T05:57:53.035Z,51.43
2023-05-22T06:00:27.618Z,45.23
2023-05-22T06:02:56.841Z,51.57
2023-05-22T06:05:46.869Z,51.53
2023-05-22T06:08:23.835Z,54.03
2023-05-22T06:10:52.073Z,48.13
2023-05-22T06:13:36.040Z,53.90
2023-05-22T06:16:06.545Z,56.80
2023-05-22T06:18:35.578Z,48.10
2023-05-22T06:21:05.202Z,56.57
2023-05-22T06:23:33.362Z,54.97
2023-05-22T06:26:01.629Z,60.83
2023-05-22T06:28:30.193Z,63.23
2023-05-22T06:30:59.959Z,65.50
2023-05-22T06:33:29.162Z,64.63
2023-05-22T06:35:57.195Z,58.07
2023-05-22T06:38:26.604Z,55.10
2023-05-22T06:40:55.534Z,61.60
2023-05-22T06:43:26.600Z,61.60
2023-05-22T06:46:13.346Z,61.40
2023-05-22T06:48:52.694Z,64.30
2023-05-22T06:51:25.800Z,60.13
2023-05-22T06:54:03.576Z,61.83
2023-05-22T06:56:33.037Z,62.53
2023-05-22T06:59:06.336Z,58.50
2023-05-22T07:01:54.642Z,62.03
2023-05-22T07:04:32.641Z,67.70
2023-05-22T07:07:09.394Z,60.57
2023-05-22T07:09:38.759Z,67.50
2023-05-22T07:12:07.830Z,61.50
2023-05-22T07:14:35.764Z,69.27
2023-05-22T07:17:04.586Z,70.43
2023-05-22T07:19:37.828Z,73.27
2023-05-22T07:22:06.692Z,68.37
2023-05-22T07:24:37.883Z,69.30
2023-05-22T07:27:07.059Z,71.97
2023-05-22T07:29:35.268Z,81.77
2023-05-22T07:32:05.219Z,76.53
2023-05-22T07:34:53.210Z,74.87
2023-05-22T07:37:22.140Z,76.67
2023-05-22T07:40:11.489Z,81.93
2023-05-22T07:42:39.488Z,69.33
2023-05-22T07:45:12.984Z,77.67
2023-05-22T07:47:41.200Z,79.77
2023-05-22T07:50:10.307Z,71.13
2023-05-22T07:52:41.721Z,76.23
2023-05-22T07:55:11.447Z,73.13
2023-05-22T07:57:43.576Z,75.03
2023-05-22T08:00:22.148Z,71.27
2023-05-22T08:02:50.216Z,78.53
2023-05-22T08:05:18.377Z,75.13
2023-05-22T08:10:52.151Z,77.03
2023-05-22T08:13:23.698Z,80.80
2023-05-22T08:15:51.589Z,89.27
2023-05-22T08:18:29.438Z,79.70
2023-05-22T08:20:57.923Z,87.40
2023-05-22T08:23:25.942Z,79.83
2023-05-22T08:25:55.270Z,80.50
2023-05-22T08:28:23.255Z,78.97
2023-05-22T08:30:51.896Z,72.60
2023-05-22T08:33:19.944Z,76.40
2023-05-22T08:35:48.005Z,76.70
2023-05-22T08:38:16.263Z,77.03
2023-05-22T08:40:49.121Z,79.07
2023-05-22T08:43:20.807Z,79.83
2023-05-22T08:45:55.866Z,81.93
2023-05-22T08:48:25.677Z,82.37
2023-05-22T08:50:57.414Z,80.63
2023-05-22T08:53:26.651Z,74.90
2023-05-22T08:55:55.136Z,75.03
2023-05-22T08:58:25.442Z,78.30
2023-05-22T09:00:55.102Z,77.70
2023-05-22T09:03:23.523Z,73.27
2023-05-22T09:05:52.208Z,78.57
2023-05-22T09:08:21.164Z,74.87
2023-05-22T09:10:49.407Z,78.83
2023-05-22T09:13:28.166Z,76.53
2023-05-22T09:16:00.914Z,71.23
2023-05-22T09:18:30.229Z,64.17
2023-05-22T09:20:59.508Z,69.43
2023-05-22T09:23:29.292Z,69.43
2023-05-22T09:25:58.130Z,70.10
2023-05-22T09:28:28.916Z,66.67
2023-05-22T09:30:56.977Z,70.03
2023-05-22T09:33:25.989Z,63.47
2023-05-22T09:35:54.743Z,61.47
2023-05-22T09:38:24.274Z,58.67
2023-05-22T09:40:54.871Z,58.03
2023-05-22T09:43:23.745Z,58.33
2023-05-22T09:45:57.537Z,57.70
2023-05-22T09:48:26.019Z,60.23
2023-05-22T09:50:56.015Z,60.23
2023-05-22T09:53:28.476Z,62.60
2023-05-22T09:55:58.122Z,60.93
2023-05-22T09:58:28.089Z,59.63
2023-05-22T10:00:58.210Z,58.73
2023-05-22T10:03:28.033Z,55.17
2023-05-22T10:05:57.124Z,58.20
2023-05-22T10:08:28.546Z,59.97
2023-05-22T10:10:57.897Z,58.57
2023-05-22T10:13:27.472Z,57.47
2023-05-22T10:15:58.369Z,55.63
2023-05-22T10:18:27.448Z,56.47
2023-05-22T10:20:55.857Z,54.70
2023-05-22T10:23:25.943Z,54.80
2023-05-22T10:25:54.613Z,48.07
2023-05-22T10:31:23.361Z,50.63
2023-05-22T10:34:31.063Z,45.90
2023-05-22T10:37:19.239Z,45.60
2023-05-22T10:40:01.987Z,43.47
2023-05-22T10:42:31.566Z,43.07
2023-05-22T10:45:01.407Z,41.70
2023-05-22T10:47:30.857Z,39.93
2023-05-22T10:50:08.125Z,41.20
2023-05-22T10:52:36.328Z,42.17
2023-05-22T10:55:08.055Z,40.83
2023-05-22T10:57:38.849Z,42.77
2023-05-22T11:00:12.425Z,42.27
2023-05-22T11:02:43.793Z,41.90
2023-05-22T11:05:36.518Z,40.30
2023-05-22T11:08:38.348Z,40.47
2023-05-22T11:11:14.624Z,44.60
2023-05-22T11:13:43.578Z,43.17
2023-05-22T11:16:12.258Z,43.33
2023-05-22T11:18:41.710Z,44.60
2023-05-22T11:21:13.657Z,42.53
2023-05-22T11:23:42.649Z,36.60
2023-05-22T11:26:22.549Z,33.50
2023-05-22T11:28:53.174Z,34.50
2023-05-22T11:31:23.889Z,35.70
2023-05-22T11:33:54.110Z,30.67
2023-05-22T11:36:22.368Z,36.60
2023-05-22T11:38:50.313Z,35.20
2023-05-22T11:41:18.237Z,37.73
2023-05-22T11:43:46.201Z,35.43
2023-05-22T11:46:14.965Z,33.13
2023-05-22T11:48:43.665Z,34.13
2023-05-22T11:51:13.607Z,35.33
2023-05-22T11:53:42.729Z,36.17
2023-05-22T11:56:11.264Z,35.00
2023-05-22T11:58:39.190Z,33.50
2023-05-22T12:01:07.495Z,33.33
2023-05-22T12:03:35.551Z,33.70
2023-05-22T12:06:04.043Z,33.60
2023-05-22T12:08:33.532Z,34.07
2023-05-22T12:11:01.627Z,29.23
2023-05-22T12:13:31.155Z,31.57
2023-05-22T12:16:01.066Z,32.03
2023-05-22T12:18:48.575Z,32.13
2023-05-22T12:21:16.665Z,31.47
2023-05-22T12:23:52.932Z,33.10
2023-05-22T12:26:21.555Z,32.07
2023-05-22T12:28:53.203Z,32.57
2023-05-22T12:31:24.142Z,34.17
2023-05-22T12:33:54.977Z,32.13
2023-05-22T12:36:23.303Z,35.00
2023-05-22T12:38:58.571Z,32.97
2023-05-22T12:41:26.480Z,33.83
2023-05-22T12:43:54.422Z,33.50
2023-05-22T12:46:22.313Z,29.30
2023-05-22T12:48:50.292Z,30.17
2023-05-22T12:51:20.059Z,31.67
2023-05-22T12:53:48.135Z,31.37
2023-05-22T12:56:17.611Z,31.23
2023-05-22T12:58:45.752Z,28.80
2023-05-22T13:01:13.684Z,29.90
2023-05-22T13:03:41.756Z,29.17
2023-05-22T13:06:09.761Z,30.87
2023-05-22T13:08:37.657Z,28.00
2023-05-22T13:11:05.741Z,30.37
2023-05-22T13:13:34.949Z,31.33
2023-05-22T13:16:02.930Z,31.43
2023-05-22T13:18:31.092Z,31.80
2023-05-22T13:21:00.227Z,30.93
2023-05-22T13:23:28.261Z,27.27
2023-05-22T13:25:56.232Z,26.27
2023-05-22T13:28:24.279Z,28.17
2023-05-22T13:30:53.651Z,30.00
2023-05-22T13:33:21.573Z,26.83
2023-05-22T13:35:49.464Z,29.90
2023-05-22T13:38:17.417Z,26.60
2023-05-22T13:40:48.140Z,32.03
2023-05-22T13:43:16.513Z,27.43
2023-05-22T13:45:44.503Z,27.07
2023-05-22T13:48:14.094Z,25.43
2023-05-22T13:50:42.003Z,25.60
2023-05-22T13:53:09.927Z,26.80
2023-05-22T13:55:38.116Z,26.50
2023-05-22T13:58:06.187Z,30.03
2023-05-22T14:00:34.159Z,31.20
2023-05-22T14:03:02.160Z,33.00
2023-05-22T14:05:32.045Z,31.67
2023-05-22T14:07:59.986Z,31.17
2023-05-22T14:10:27.916Z,28.13
2023-05-22T14:12:55.904Z,29.50
2023-05-22T14:15:24.282Z,29.67
2023-05-22T14:17:52.285Z,26.03
2023-05-22T14:20:20.446Z,27.83
2023-05-22T14:25:23.580Z,26.63
2023-05-22T14:27:51.456Z,29.07
2023-05-22T14:30:19.619Z,25.03
2023-05-22T14:32:48.582Z,25.60
2023-05-22T14:35:17.467Z,27.10
2023-05-22T14:37:46.880Z,25.30
2023-05-22T14:40:16.181Z,25.90
2023-05-22T14:42:44.213Z,24.23
2023-05-22T14:45:12.751Z,27.87
2023-05-22T14:47:42.296Z,26.13
2023-05-22T14:50:19.102Z,27.97
2023-05-22T14:52:48.326Z,25.00
2023-05-22T14:55:18.080Z,24.87
2023-05-22T14:57:46.059Z,26.47
2023-05-22T15:00:15.368Z,24.70
2023-05-22T15:02:43.300Z,25.37
2023-05-22T15:05:11.584Z,30.57
2023-05-22T15:10:31.799Z,26.90
2023-05-22T15:12:59.712Z,23.50
2023-05-22T15:15:27.672Z,22.87
2023-05-22T15:17:55.671Z,26.63
2023-05-22T15:20:23.679Z,26.20
2023-05-22T15:23:10.628Z,27.23
2023-05-22T15:25:40.494Z,26.47
2023-05-22T15:28:08.530Z,29.57
2023-05-22T15:30:38.691Z,24.40
2023-05-22T15:33:07.038Z,24.17
2023-05-22T15:35:35.033Z,27.30
2023-05-22T15:38:03.377Z,30.50
2023-05-22T15:40:31.518Z,28.83
2023-05-22T15:43:03.829Z,28.03
2023-05-22T15:45:31.818Z,29.23
2023-05-22T15:47:59.850Z,31.80
2023-05-22T15:50:27.925Z,28.77
2023-05-22T15:52:55.814Z,30.07
2023-05-22T15:55:23.774Z,34.57
2023-05-22T15:57:51.748Z,29.70
2023-05-22T16:00:21.489Z,31.20
2023-05-22T16:02:49.724Z,35.53
2023-05-22T16:05:17.779Z,33.90
2023-05-22T16:07:45.775Z,26.37
2023-05-22T16:10:13.677Z,29.00
2023-05-22T16:12:41.772Z,30.43
2023-05-22T16:15:10.748Z,29.53
2023-05-22T16:20:27.156Z,37.60
2023-05-22T16:22:55.313Z,30.53
2023-05-22T16:25:23.470Z,31.47
2023-05-22T16:27:51.381Z,32.17
2023-05-22T16:30:20.870Z,31.40
2023-05-22T16:32:50.324Z,31.93
2023-05-22T16:35:37.045Z,32.63
2023-05-22T16:38:06.965Z,30.07
2023-05-22T16:40:34.870Z,30.10
2023-05-22T16:43:04.370Z,33.70
2023-05-22T16:45:32.248Z,27.73
2023-05-22T16:48:20.031Z,30.60
2023-05-22T16:50:48.025Z,37.33
2023-05-22T16:53:17.279Z,29.60
2023-05-22T16:55:45.510Z,27.40
2023-05-22T16:58:13.654Z,25.63
2023-05-22T17:00:42.904Z,31.33
2023-05-22T17:03:13.029Z,29.13
2023-05-22T17:05:41.703Z,27.40
2023-05-22T17:08:09.843Z,30.77
2023-05-22T17:10:38.011Z,31.87
2023-05-22T17:13:05.950Z,29.30
2023-05-22T17:15:34.083Z,28.27
2023-05-22T17:18:02.234Z,27.60
2023-05-22T17:20:32.779Z,28.23
2023-05-22T17:23:00.784Z,27.53
2023-05-22T17:25:28.711Z,29.93
2023-05-22T17:27:56.728Z,26.40
2023-05-22T17:30:24.697Z,26.33
2023-05-22T17:32:53.371Z,28.17
2023-05-22T17:35:21.536Z,19.07
2023-05-22T17:37:50.989Z,24.70
2023-05-22T17:40:19.576Z,23.23
2023-05-22T17:42:47.595Z,18.77
2023-05-22T17:45:15.758Z,15.07
2023-05-22T17:47:43.843Z,13.57
2023-05-22T17:50:12.639Z,13.67
2023-05-22T17:52:41.060Z,15.63
2023-05-22T17:55:11.011Z,15.30
2023-05-22T17:57:39.099Z,13.03
2023-05-22T18:00:10.042Z,11.70
2023-05-22T18:02:40.969Z,11.83
2023-05-22T18:05:10.279Z,12.37
2023-05-22T18:07:38.263Z,13.83
2023-05-22T18:10:07.334Z,12.10
2023-05-22T18:12:38.147Z,11.63
2023-05-22T18:15:08.512Z,14.37
2023-05-22T18:17:36.554Z,11.27
2023-05-22T18:20:06.234Z,11.07
2023-05-22T18:22:34.221Z,11.30
2023-05-22T18:25:02.387Z,9.63
2023-05-22T18:27:31.301Z,9.97
2023-05-22T18:30:00.572Z,8.87
2023-05-22T18:32:28.543Z,7.93
2023-05-22T18:34:58.396Z,8.73
2023-05-22T18:37:26.327Z,10.63
2023-05-22T18:40:15.163Z,7.77
2023-05-22T18:42:43.578Z,6.20
2023-05-22T18:45:13.493Z,6.13
2023-05-22T18:47:41.626Z,7.43
2023-05-22T18:50:10.485Z,7.07
2023-05-22T18:52:39.890Z,6.43
2023-05-22T18:55:08.555Z,7.07
2023-05-22T18:57:36.484Z,6.00
2023-05-22T19:00:04.978Z,10.43
2023-05-22T19:02:34.250Z,7.67
2023-05-22T19:05:02.374Z,6.90
2023-05-22T19:07:31.260Z,7.77
2023-05-22T19:09:59.211Z,5.87
2023-05-22T19:12:31.544Z,5.57
2023-05-22T19:14:59.783Z,5.87
2023-05-22T19:17:27.801Z,5.40
2023-05-22T19:19:57.133Z,7.00
2023-05-22T19:22:25.150Z,6.60
2023-05-22T19:24:53.112Z,5.73
2023-05-22T19:27:21.102Z,6.30
2023-05-22T19:29:49.041Z,8.30
2023-05-22T19:32:17.001Z,6.10
2023-05-22T19:34:44.969Z,5.57
2023-05-22T19:37:33.381Z,5.23
2023-05-22T19:40:01.248Z,5.57
2023-05-22T19:42:29.229Z,5.73
2023-05-22T19:44:57.218Z,7.30
2023-05-22T19:47:25.136Z,6.40
2023-05-22T19:49:53.181Z,5.10
2023-05-22T19:52:22.736Z,7.00
2023-05-22T19:54:50.644Z,6.93
2023-05-22T19:57:20.162Z,5.57
2023-05-22T20:00:06.186Z,6.00
2023-05-22T20:02:34.628Z,5.50
2023-05-22T20:05:04.310Z,6.97
2023-05-22T20:07:33.590Z,5.40
2023-05-22T20:12:48.157Z,6.70
2023-05-22T20:15:17.747Z,5.90
2023-05-22T20:17:47.312Z,10.43
2023-05-22T20:20:15.310Z,7.13
2023-05-22T20:22:44.600Z,7.00
2023-05-22T20:25:12.637Z,7.17
2023-05-22T20:27:40.778Z,8.30
2023-05-22T20:30:11.451Z,9.27
2023-05-22T20:32:40.189Z,6.63
2023-05-22T20:35:10.795Z,8.47
2023-05-22T20:37:40.978Z,7.70
2023-05-22T20:40:12.049Z,8.33
2023-05-22T20:42:40.801Z,12.10
2023-05-22T20:45:13.636Z,7.83
2023-05-22T20:47:42.673Z,7.70
2023-05-22T20:50:11.360Z,8.33
2023-05-22T20:55:27.050Z,8.50
2023-05-22T20:57:54.996Z,8.23
2023-05-22T21:00:24.171Z,9.97
2023-05-22T21:02:52.325Z,9.00
2023-05-22T21:05:40.414Z,10.13
2023-05-22T21:08:08.910Z,11.27
2023-05-22T21:10:38.352Z,10.33
2023-05-22T21:13:06.583Z,11.80
2023-05-22T21:15:34.509Z,10.53
2023-05-22T21:18:02.536Z,11.50
2023-05-22T21:20:30.438Z,11.30
2023-05-22T21:22:58.436Z,13.47
2023-05-22T21:25:26.348Z,11.17
2023-05-22T21:27:55.784Z,15.23
2023-05-22T21:30:23.653Z,14.53
2023-05-22T21:32:51.660Z,18.60
2023-05-22T21:35:19.648Z,16.23
2023-05-22T21:37:47.590Z,19.13
2023-05-22T21:40:15.557Z,17.03
2023-05-22T21:42:46.418Z,17.93
2023-05-22T21:45:16.329Z,17.73
2023-05-22T21:47:44.400Z,18.87
2023-05-22T21:50:12.802Z,16.50
2023-05-22T21:52:40.787Z,20.23
2023-05-22T21:55:09.171Z,20.00
2023-05-22T21:57:37.474Z,22.60
2023-05-22T22:00:05.960Z,18.97
2023-05-22T22:02:35.335Z,21.30
2023-05-22T22:05:24.405Z,16.57
2023-05-22T22:07:52.371Z,19.47
2023-05-22T22:10:20.712Z,19.63
2023-05-22T22:12:48.653Z,15.97
2023-05-22T22:15:16.640Z,17.80
2023-05-22T22:17:45.956Z,19.37
2023-05-22T22:20:14.094Z,20.83
2023-05-22T22:22:42.028Z,22.50
2023-05-22T22:25:10.586Z,25.57
2023-05-22T22:27:38.544Z,21.03
2023-05-22T22:30:07.687Z,23.87
2023-05-22T22:32:35.617Z,28.53
2023-05-22T22:35:05.349Z,32.37
2023-05-22T22:37:33.766Z,30.30
2023-05-22T22:40:01.666Z,36.77
2023-05-22T22:42:29.551Z,37.67
2023-05-22T22:44:57.422Z,34.00
2023-05-22T22:47:25.954Z,36.63
2023-05-22T22:49:57.013Z,31.47
2023-05-22T22:52:26.300Z,32.17
2023-05-22T22:54:54.225Z,34.50
2023-05-22T22:57:22.334Z,29.63
2023-05-22T22:59:50.311Z,34.53
2023-05-22T23:02:18.211Z,37.07
2023-05-22T23:04:46.288Z,35.27
2023-05-22T23:07:14.304Z,33.67
2023-05-22T23:09:43.559Z,35.47
2023-05-22T23:12:11.480Z,37.30
2023-05-22T23:14:58.510Z,35.73
2023-05-22T23:17:26.428Z,36.47
2023-05-22T23:19:54.333Z,37.53
2023-05-22T23:22:22.263Z,35.70
2023-05-22T23:24:51.617Z,35.63
2023-05-22T23:27:19.534Z,35.97
2023-05-22T23:29:47.510Z,33.40
2023-05-22T23:32:15.518Z,33.50
2023-05-22T23:34:43.408Z,35.23
2023-05-22T23:37:11.457Z,34.63
2023-05-22T23:39:39.723Z,31.23
2023-05-22T23:42:10.958Z,34.33
2023-05-22T23:44:38.896Z,35.80
2023-05-22T23:47:07.191Z,36.70
2023-05-22T23:49:35.230Z,36.13
2023-05-22T23:52:03.171Z,34.30
2023-05-22T23:54:31.025Z,27.90
2023-05-22T23:56:58.931Z,33.07
2023-05-22T23:59:28.274Z,29.57
